Time;durP1;ratioP1;P1;durP2;ratioP2;P2;SDS_P1;SDS_P2;PMS_P1;PMS_P2;Temp;Humidity;BMP_temperature;BMP_pressure;BME280_temperature;BME280_humidity;BME280_pressure;Samples;Min_cycle;Max_cycle;Signal;HPM_P1;HPM_P2
2024/01/09 00:00:56;;;;;;;2.00;1.00;;;;;;;19.26;31.94;103241.53;4982354;28;97876;-86
2024/01/09 00:03:21;;;;;;;2.00;1.02;;;;;;;19.25;32.06;103242.38;4971253;28;96981;-86
2024/01/09 00:05:46;;;;;;;2.45;1.50;;;;;;;19.24;31.66;103249.44;4980417;28;102240;-85
2024/01/09 00:08:12;;;;;;;1.42;0.75;;;;;;;19.24;32.04;103237.97;4980078;28;98498;-86
2024/01/09 00:10:37;;;;;;;2.25;1.50;;;;;;;19.24;31.58;103237.97;4973536;28;113717;-86
2024/01/09 00:13:04;;;;;;;2.00;0.90;;;;;;;19.24;31.98;103232.69;4989524;28;97703;-86
2024/01/09 00:15:30;;;;;;;1.90;1.35;;;;;;;19.24;31.93;103235.34;4969473;28;97801;-86
2024/01/09 00:17:55;;;;;;;2.67;1.50;;;;;;;19.24;31.78;103232.69;4980923;28;98593;-85
2024/01/09 00:20:20;;;;;;;1.58;0.90;;;;;;;19.24;32.01;103240.63;4985582;28;97224;-85
2024/01/09 00:22:46;;;;;;;2.65;1.38;;;;;;;19.23;31.73;103236.19;4984239;28;96839;-86
2024/01/09 00:25:11;;;;;;;1.50;1.13;;;;;;;19.21;31.53;103229.13;4988700;28;96786;-86
2024/01/09 00:27:37;;;;;;;1.80;1.13;;;;;;;19.23;31.73;103236.19;4981448;28;97633;-85
2024/01/09 00:30:03;;;;;;;2.05;1.10;;;;;;;19.23;31.67;103238.84;4970853;28;96910;-86
2024/01/09 00:32:29;;;;;;;1.95;1.17;;;;;;;19.22;31.71;103240.59;4992469;28;97397;-85
2024/01/09 00:34:54;;;;;;;1.83;0.85;;;;;;;19.21;31.54;103229.13;4985082;28;97686;-86
2024/01/09 00:37:19;;;;;;;2.47;1.13;;;;;;;19.21;31.73;103236.16;4983118;28;97641;-85
2024/01/09 00:39:45;;;;;;;1.58;0.90;;;;;;;19.20;31.87;103232.63;4985166;28;96851;-86
2024/01/09 00:42:10;;;;;;;2.20;1.60;;;;;;;19.21;32.02;103244.09;4984911;28;96842;-85
2024/01/09 00:44:36;;;;;;;2.03;1.02;;;;;;;19.21;31.82;103238.81;4969010;28;98264;-85
2024/01/09 00:47:02;;;;;;;1.83;1.38;;;;;;;19.21;31.67;103241.44;4969516;28;98797;-86
2024/01/09 00:49:27;;;;;;;1.98;1.27;;;;;;;19.21;31.47;103239.72;5004047;28;96917;-85
2024/01/09 00:51:53;;;;;;;1.42;1.00;;;;;;;19.19;31.77;103232.59;4992068;28;97490;-85
2024/01/09 00:54:19;;;;;;;2.00;1.20;;;;;;;19.19;31.90;103233.47;4988007;28;100184;-85
2024/01/09 00:56:45;;;;;;;1.77;1.00;;;;;;;19.18;31.67;103229.06;4984135;28;96986;-85
2024/01/09 00:59:10;;;;;;;1.58;0.93;;;;;;;19.19;31.82;103230.84;5010431;28;97180;-85
2024/01/09 01:01:35;;;;;;;1.92;1.10;;;;;;;19.17;31.76;103232.56;4985006;28;96765;-85
2024/01/09 01:04:01;;;;;;;2.35;1.17;;;;;;;19.19;31.67;103229.97;4964368;28;99579;-85
2024/01/09 01:06:26;;;;;;;1.90;1.25;;;;;;;19.17;31.43;103227.28;4997713;28;118073;-85
2024/01/09 01:08:51;;;;;;;1.80;1.23;;;;;;;19.18;31.53;103225.56;5013901;28;117152;-85
2024/01/09 01:11:17;;;;;;;2.00;1.70;;;;;;;19.17;31.80;103227.28;4987441;28;97029;-85
2024/01/09 01:13:42;;;;;;;1.70;0.85;;;;;;;19.18;31.70;103222.91;4986985;28;123040;-85
2024/01/09 01:16:08;;;;;;;1.80;1.15;;;;;;;19.18;31.34;103225.56;4975693;28;96830;-85
2024/01/09 01:18:33;;;;;;;1.67;1.05;;;;;;;19.18;31.70;103230.84;4991766;28;97499;-85
2024/01/09 01:20:58;;;;;;;2.80;1.55;;;;;;;19.18;31.56;103225.56;4983120;28;96861;-85
2024/01/09 01:23:24;;;;;;;2.55;1.60;;;;;;;19.16;31.64;103233.47;4990857;28;98005;-85
2024/01/09 01:25:49;;;;;;;2.65;1.70;;;;;;;19.15;31.67;103226.38;4987331;28;98853;-85
2024/01/09 01:28:14;;;;;;;2.15;1.00;;;;;;;19.15;31.64;103229.03;4973133;28;115131;-85
2024/01/09 01:30:40;;;;;;;1.95;1.10;;;;;;;19.15;31.64;103230.78;4986368;28;116281;-85
2024/01/09 01:33:05;;;;;;;2.05;1.80;;;;;;;19.16;31.51;103229.91;4973244;28;123400;-85
2024/01/09 01:35:31;;;;;;;2.47;1.63;;;;;;;19.15;31.57;103230.78;4973774;28;99377;-85
2024/01/09 01:37:56;;;;;;;2.67;1.45;;;;;;;19.15;31.47;103239.59;4979446;28;105831;-85
2024/01/09 01:40:21;;;;;;;2.30;1.48;;;;;;;19.15;31.64;103229.03;5004008;28;113418;-85
2024/01/09 01:42:47;;;;;;;2.60;1.67;;;;;;;19.15;31.43;103233.44;5009064;27;98078;-85
2024/01/09 01:45:17;;;;;;;2.10;1.73;;;;;;;19.16;31.65;103235.19;4985567;28;126194;-85
2024/01/09 01:47:45;;;;;;;2.28;1.27;;;;;;;19.15;31.40;103238.72;4991717;28;97384;-85
2024/01/09 01:50:12;;;;;;;1.70;1.30;;;;;;;19.14;31.56;103229.88;4992442;28;96775;-85
2024/01/09 01:52:38;;;;;;;2.17;1.17;;;;;;;19.14;31.71;103224.59;4993900;28;99786;-84
2024/01/09 01:55:04;;;;;;;1.55;0.82;;;;;;;19.14;31.21;103226.34;4971719;28;97702;-85
2024/01/09 01:57:30;;;;;;;1.90;1.30;;;;;;;19.14;31.54;103223.72;4987581;28;96676;-85
2024/01/09 01:59:57;;;;;;;2.00;1.23;;;;;;;19.14;31.30;103227.22;4984457;28;96757;-84
2024/01/09 02:02:25;;;;;;;1.85;1.20;;;;;;;19.13;31.65;103220.19;4974145;28;100643;-85
2024/01/09 02:04:50;;;;;;;1.95;1.13;;;;;;;19.13;31.58;103224.59;5003824;28;99807;-85
2024/01/09 02:07:16;;;;;;;1.45;0.85;;;;;;;19.13;31.53;103217.53;4992626;28;97371;-85
2024/01/09 02:09:41;;;;;;;1.80;1.20;;;;;;;19.12;31.49;103223.69;4987648;28;96820;-85
2024/01/09 02:12:07;;;;;;;2.20;1.02;;;;;;;19.12;31.44;103223.69;4988362;28;97782;-85
2024/01/09 02:14:34;;;;;;;2.38;1.02;;;;;;;19.12;31.45;103222.81;4971839;28;98399;-85
2024/01/09 02:16:59;;;;;;;2.13;1.42;;;;;;;19.12;31.38;103220.16;5018238;27;96803;-85
2024/01/09 02:19:25;;;;;;;1.73;0.90;;;;;;;19.12;31.44;103218.38;4978579;28;97400;-85
2024/01/09 02:21:51;;;;;;;2.25;1.13;;;;;;;19.11;31.45;103224.56;4991324;28;97878;-84
2024/01/09 02:24:17;;;;;;;1.73;1.15;;;;;;;19.11;31.42;103221.91;4977124;28;97876;-85
2024/01/09 02:26:51;;;;;;;1.48;1.27;;;;;;;19.12;31.37;103222.81;4964832;28;97413;-85
2024/01/09 02:29:22;;;;;;;1.67;0.98;;;;;;;19.10;31.44;103219.25;4985142;28;97194;-85
2024/01/09 02:31:48;;;;;;;1.90;1.13;;;;;;;19.11;31.34;103227.22;4999361;28;99300;-84
2024/01/09 02:34:14;;;;;;;2.50;1.67;;;;;;;19.10;31.58;103216.59;4988019;28;97247;-84
2024/01/09 02:36:40;;;;;;;2.33;1.10;;;;;;;19.10;31.33;103213.97;4977205;28;96893;-85
2024/01/09 02:39:07;;;;;;;2.83;1.55;;;;;;;19.09;31.37;103218.38;4987703;28;110631;-85
2024/01/09 02:41:38;;;;;;;2.13;1.50;;;;;;;19.09;31.20;103218.38;4977741;28;97732;-85
2024/01/09 02:44:04;;;;;;;1.67;0.93;;;;;;;19.08;31.26;103211.28;4985784;28;103193;-85
2024/01/09 02:46:29;;;;;;;2.03;0.88;;;;;;;19.08;31.16;103211.28;5015689;28;97559;-84
2024/01/09 02:48:55;;;;;;;1.80;1.02;;;;;;;19.09;31.64;103204.22;4987234;28;97008;-85
2024/01/09 02:51:20;;;;;;;2.13;1.00;;;;;;;19.08;31.32;103202.47;4987572;28;100592;-85
2024/01/09 02:53:47;;;;;;;2.00;1.40;;;;;;;19.07;31.40;103204.19;4956097;28;115938;-84
2024/01/09 02:56:13;;;;;;;2.25;1.42;;;;;;;19.09;31.52;103204.22;5005259;27;97415;-85
2024/01/09 02:58:38;;;;;;;2.22;1.10;;;;;;;19.08;31.54;103210.41;4974501;28;96798;-85
2024/01/09 03:01:04;;;;;;;2.10;1.63;;;;;;;19.08;31.26;103211.28;4981843;28;118277;-85
2024/01/09 03:03:29;;;;;;;1.85;1.27;;;;;;;19.08;31.24;103210.41;4980310;28;97489;-85
2024/01/09 03:05:55;;;;;;;2.92;1.52;;;;;;;19.07;31.50;103205.97;4973522;28;96741;-84
2024/01/09 03:08:20;;;;;;;1.60;1.00;;;;;;;19.07;31.42;103208.63;4971523;28;97199;-85
2024/01/09 03:10:45;;;;;;;2.05;1.60;;;;;;;19.06;31.62;103210.38;4984743;28;125607;-85
2024/01/09 03:13:11;;;;;;;1.77;0.93;;;;;;;19.06;31.21;103205.09;4985341;28;99231;-84
2024/01/09 03:15:36;;;;;;;2.65;1.20;;;;;;;19.07;31.20;103211.25;4975249;28;97486;-85
2024/01/09 03:18:03;;;;;;;1.65;0.85;;;;;;;19.07;31.51;103211.25;4986617;28;96996;-84
2024/01/09 03:20:28;;;;;;;1.50;0.93;;;;;;;19.06;31.53;103207.72;4986729;28;98531;-84
2024/01/09 03:22:53;;;;;;;1.90;1.02;;;;;;;19.06;31.04;103209.50;4968995;28;113518;-85
2024/01/09 03:25:19;;;;;;;2.10;1.40;;;;;;;19.05;31.62;103207.72;4969978;28;96817;-85
2024/01/09 03:27:44;;;;;;;1.75;1.38;;;;;;;19.05;31.49;103210.34;4971291;28;106518;-85
2024/01/09 03:30:10;;;;;;;2.30;1.55;;;;;;;19.05;31.52;103207.72;4972396;28;96810;-84
2024/01/09 03:32:35;;;;;;;2.10;1.40;;;;;;;19.05;31.26;103211.22;4989291;28;98451;-84
2024/01/09 03:35:01;;;;;;;1.75;0.88;;;;;;;19.04;31.40;103209.47;4980006;28;96736;-84
2024/01/09 03:37:26;;;;;;;2.35;0.85;;;;;;;19.05;31.32;103211.22;4973756;28;97258;-85
2024/01/09 03:39:52;;;;;;;1.83;1.02;;;;;;;19.04;31.31;103209.47;4982932;28;118042;-84
2024/01/09 03:42:17;;;;;;;2.30;1.50;;;;;;;19.04;31.56;103214.75;4977049;28;99687;-84
2024/01/09 03:44:42;;;;;;;2.38;1.00;;;;;;;19.03;31.29;103211.19;4988503;28;119092;-84
2024/01/09 03:47:08;;;;;;;2.13;1.23;;;;;;;19.03;31.21;103207.69;5016826;28;104416;-84
2024/01/09 03:49:33;;;;;;;2.00;1.33;;;;;;;19.02;31.43;103204.16;4982811;28;97660;-84
2024/01/09 03:51:59;;;;;;;1.58;0.93;;;;;;;19.02;31.22;103212.09;4977983;28;98217;-84
2024/01/09 03:54:24;;;;;;;1.50;1.00;;;;;;;19.02;31.50;103203.28;5001340;28;96788;-84
2024/01/09 03:56:49;;;;;;;2.15;1.23;;;;;;;19.02;31.28;103208.56;4960524;28;109476;-84
2024/01/09 03:59:15;;;;;;;2.45;1.30;;;;;;;19.01;31.53;103199.72;4977841;28;96872;-84
2024/01/09 04:01:40;;;;;;;1.63;0.88;;;;;;;19.01;31.19;103207.66;4984431;28;96828;-84
2024/01/09 04:04:06;;;;;;;2.22;1.42;;;;;;;19.02;31.23;103208.56;4981699;28;96796;-85
2024/01/09 04:06:32;;;;;;;1.83;1.13;;;;;;;19.01;31.43;103215.59;4974311;28;96861;-84
2024/01/09 04:08:58;;;;;;;2.08;0.90;;;;;;;19.02;31.32;103208.56;4972859;28;99244;-84
2024/01/09 04:11:23;;;;;;;1.80;1.50;;;;;;;19.01;31.49;103207.66;4975122;28;118522;-84
2024/01/09 04:13:48;;;;;;;2.08;1.48;;;;;;;19.00;31.24;103197.97;4996540;28;111060;-84
2024/01/09 04:16:14;;;;;;;2.58;1.55;;;;;;;19.00;31.27;103200.59;4980718;28;96791;-84
2024/01/09 04:18:39;;;;;;;1.90;1.35;;;;;;;19.01;31.43;103204.13;4983657;28;98127;-84
2024/01/09 04:21:05;;;;;;;2.10;1.27;;;;;;;19.01;31.31;103196.19;4970438;28;98799;-84
2024/01/09 04:23:30;;;;;;;2.00;1.58;;;;;;;19.00;31.31;103194.41;5005121;28;97078;-84
2024/01/09 04:25:55;;;;;;;2.50;1.23;;;;;;;19.00;31.45;103191.75;4989205;28;96970;-84
2024/01/09 04:28:21;;;;;;;2.28;1.17;;;;;;;19.00;31.30;103197.03;4989860;28;98792;-84
2024/01/09 04:30:46;;;;;;;2.10;1.38;;;;;;;18.99;31.31;103190.00;4977355;28;126589;-84
2024/01/09 04:33:12;;;;;;;1.45;0.73;;;;;;;18.99;31.02;103190.00;4978728;28;96937;-84
2024/01/09 04:35:37;;;;;;;1.80;1.60;;;;;;;18.99;31.60;103190.88;4962273;28;96867;-84
2024/01/09 04:38:02;;;;;;;2.63;1.25;;;;;;;18.98;31.22;103183.81;4972681;28;127487;-84
2024/01/09 04:40:28;;;;;;;2.08;0.93;;;;;;;18.99;31.40;103184.72;4979434;28;97363;-84
2024/01/09 04:42:53;;;;;;;2.13;1.35;;;;;;;18.98;31.29;103181.19;4984872;28;96940;-84
2024/01/09 04:45:19;;;;;;;1.67;1.30;;;;;;;18.98;31.40;103186.47;4962944;28;97064;-84
2024/01/09 04:48:09;;;;;;;2.97;1.02;;;;;;;18.97;31.51;103189.97;4991248;28;97573;-84
2024/01/09 04:50:35;;;;;;;2.75;0.80;;;;;;;18.96;31.32;103182.88;4978007;28;96817;-84
2024/01/09 04:53:00;;;;;;;2.30;1.67;;;;;;;18.96;31.48;103182.00;5000699;28;115468;-84
2024/01/09 04:55:26;;;;;;;1.92;0.82;;;;;;;18.96;31.55;103182.88;4972818;28;97224;-84
2024/01/09 04:57:51;;;;;;;2.00;1.30;;;;;;;18.96;31.19;103188.19;4985631;28;96730;-84
2024/01/09 05:00:19;;;;;;;1.90;1.38;;;;;;;18.96;30.99;103192.59;4988520;28;118785;-84
2024/01/09 05:02:44;;;;;;;2.00;1.02;;;;;;;18.97;30.99;103191.72;4971335;28;97171;-83
2024/01/09 05:05:10;;;;;;;2.65;1.73;;;;;;;18.96;31.21;103196.09;4980470;28;97281;-84
2024/01/09 05:07:35;;;;;;;1.85;1.27;;;;;;;18.95;31.04;103189.06;4974504;28;100055;-84
2024/01/09 05:10:01;;;;;;;2.20;1.05;;;;;;;18.95;31.13;103181.13;4988116;28;99128;-84
2024/01/09 05:12:26;;;;;;;1.73;1.02;;;;;;;18.96;31.03;103185.53;4974985;28;97149;-84
2024/01/09 05:14:52;;;;;;;2.53;1.50;;;;;;;18.96;31.35;103188.19;4981584;28;97303;-84
2024/01/09 05:17:17;;;;;;;1.50;0.80;;;;;;;18.95;31.24;103190.81;4986623;28;128100;-84
2024/01/09 05:19:42;;;;;;;2.05;1.55;;;;;;;18.95;31.17;103191.72;4981611;28;116289;-84
2024/01/09 05:22:08;;;;;;;1.65;1.15;;;;;;;18.95;31.15;103191.72;4997120;28;97482;-83
2024/01/09 05:24:33;;;;;;;2.17;1.20;;;;;;;18.94;31.44;103192.56;4994998;28;116230;-84
2024/01/09 05:26:59;;;;;;;1.30;0.80;;;;;;;18.94;31.26;103186.38;4981446;28;107283;-84
2024/01/09 05:29:24;;;;;;;2.60;1.40;;;;;;;18.94;31.42;103196.97;4969534;28;98966;-84
2024/01/09 05:31:49;;;;;;;2.60;1.52;;;;;;;18.95;31.28;103196.13;4972978;28;97017;-84
2024/01/09 05:34:15;;;;;;;2.00;1.42;;;;;;;18.94;31.29;103192.56;4978080;28;118105;-84
2024/01/09 05:36:40;;;;;;;2.10;0.90;;;;;;;18.94;31.17;103192.56;4970710;28;114400;-84
2024/01/09 05:39:06;;;;;;;2.40;1.45;;;;;;;18.93;31.07;103193.44;4988959;28;98108;-84
2024/01/09 05:41:31;;;;;;;1.55;0.82;;;;;;;18.94;31.09;103196.97;5001332;28;97236;-84
2024/01/09 05:43:57;;;;;;;2.20;1.13;;;;;;;18.93;31.18;103189.88;4983607;28;97256;-84
2024/01/09 05:46:23;;;;;;;2.00;1.08;;;;;;;18.93;31.46;103188.16;4976154;28;98070;-84
2024/01/09 05:48:48;;;;;;;2.42;0.82;;;;;;;18.93;31.29;103184.59;4980624;28;98991;-84
2024/01/09 05:51:14;;;;;;;2.17;1.13;;;;;;;18.91;31.16;103184.59;4967889;28;97110;-84
2024/01/09 05:53:39;;;;;;;1.80;0.93;;;;;;;18.93;31.06;103189.88;4972162;28;97078;-84
2024/01/09 05:56:06;;;;;;;2.10;1.42;;;;;;;18.92;31.07;103198.72;4974887;28;97503;-84
2024/01/09 05:58:33;;;;;;;1.88;1.20;;;;;;;18.91;31.04;103189.91;5003371;28;99804;-84
2024/01/09 06:00:58;;;;;;;2.20;1.13;;;;;;;18.92;31.13;103193.41;5005558;28;97455;-84
2024/01/09 06:03:23;;;;;;;2.20;1.15;;;;;;;18.91;31.24;103194.25;4988894;28;97084;-84
2024/01/09 06:05:49;;;;;;;1.90;1.05;;;;;;;18.92;31.03;103198.72;4994212;28;97478;-84
2024/01/09 06:08:15;;;;;;;1.42;0.98;;;;;;;18.91;31.19;103192.53;4988705;28;97695;-83
2024/01/09 06:10:41;;;;;;;2.03;0.93;;;;;;;18.91;31.14;103192.53;4958652;28;96806;-84
2024/01/09 06:13:07;;;;;;;2.33;1.45;;;;;;;18.91;31.08;103195.19;4983094;28;96966;-84
2024/01/09 06:15:32;;;;;;;1.88;1.40;;;;;;;18.91;31.15;103188.97;4992086;28;98070;-84
2024/01/09 06:17:57;;;;;;;2.45;1.10;;;;;;;18.90;31.17;103201.31;4984823;28;104187;-84
2024/01/09 06:20:23;;;;;;;3.40;1.02;;;;;;;18.90;31.31;103190.75;4993496;28;116808;-84
2024/01/09 06:22:49;;;;;;;2.00;1.15;;;;;;;18.90;31.11;103195.16;4973038;28;96833;-84
2024/01/09 06:25:14;;;;;;;2.65;1.50;;;;;;;18.90;31.27;103200.44;5018363;27;97924;-84
2024/01/09 06:27:39;;;;;;;3.08;1.95;;;;;;;18.90;31.11;103203.09;4983443;28;97498;-84
2024/01/09 06:30:06;;;;;;;2.65;1.58;;;;;;;18.90;31.28;103201.31;4991193;28;96854;-83
2024/01/09 06:32:32;;;;;;;1.60;0.85;;;;;;;18.89;30.99;103201.28;4989350;28;97726;-84
2024/01/09 06:34:57;;;;;;;2.40;1.13;;;;;;;18.89;31.44;103196.00;4987364;28;100381;-84
2024/01/09 06:37:23;;;;;;;1.95;1.52;;;;;;;18.89;31.05;103202.16;4993268;28;97503;-84
2024/01/09 06:39:48;;;;;;;2.13;1.42;;;;;;;18.88;31.05;103213.63;4986871;28;116149;-84
2024/01/09 06:42:14;;;;;;;1.90;1.45;;;;;;;18.89;31.09;103204.81;4998153;28;97088;-84
2024/01/09 06:44:39;;;;;;;2.45;1.58;;;;;;;18.88;30.87;103203.06;4972883;28;99878;-84
2024/01/09 06:47:05;;;;;;;1.92;1.40;;;;;;;18.88;31.15;103204.81;4961047;28;99700;-84
2024/01/09 06:49:30;;;;;;;2.30;1.30;;;;;;;18.87;31.20;103211.84;4991805;28;96781;-84
2024/01/09 06:51:55;;;;;;;2.17;1.58;;;;;;;18.87;30.98;103214.47;4985556;28;96751;-84
2024/01/09 06:54:21;;;;;;;2.20;1.50;;;;;;;18.86;31.07;103215.38;4997411;28;99960;-84
2024/01/09 06:56:46;;;;;;;2.00;1.40;;;;;;;18.87;31.13;103213.59;4998783;28;97302;-84
2024/01/09 06:59:12;;;;;;;2.05;1.02;;;;;;;18.86;31.05;103218.00;5017907;27;112320;-84
2024/01/09 07:01:53;;;;;;;2.10;1.60;;;;;;;18.87;30.96;103229.47;4967684;28;97074;-84
2024/01/09 07:04:18;;;;;;;2.47;1.35;;;;;;;18.86;31.32;103225.03;4984194;28;107552;-84
2024/01/09 07:06:44;;;;;;;2.25;1.02;;;;;;;18.85;31.13;103226.81;4971992;28;99523;-84
2024/01/09 07:09:09;;;;;;;1.90;1.42;;;;;;;18.86;31.02;103236.53;4984080;28;116656;-84
2024/01/09 07:11:35;;;;;;;1.95;0.93;;;;;;;18.85;31.29;103229.44;5005991;28;97252;-84
2024/01/09 07:14:00;;;;;;;2.05;0.93;;;;;;;18.85;31.23;103226.81;4982775;28;96699;-84
2024/01/09 07:16:26;;;;;;;1.92;1.48;;;;;;;18.85;30.89;103226.81;4988973;28;97474;-86
2024/01/09 07:18:52;;;;;;;1.85;0.82;;;;;;;18.85;31.26;103232.09;4980271;28;98044;-86
2024/01/09 07:21:17;;;;;;;2.03;1.58;;;;;;;18.85;30.99;103236.50;5016373;27;97075;-86
2024/01/09 07:23:44;;;;;;;2.15;1.23;;;;;;;18.83;31.09;103240.00;4988654;28;98457;-86
2024/01/09 07:26:09;;;;;;;4.03;1.73;;;;;;;18.84;31.15;103238.22;4999116;28;98224;-87
2024/01/09 07:28:35;;;;;;;3.60;1.88;;;;;;;18.83;31.13;103234.69;4984926;28;96913;-86
2024/01/09 07:31:02;;;;;;;1.83;1.10;;;;;;;18.84;30.80;103243.50;4967157;28;97760;-85
2024/01/09 07:33:28;;;;;;;2.50;1.40;;;;;;;18.84;30.97;103251.44;4968788;28;100626;-85
2024/01/09 07:35:53;;;;;;;2.00;1.02;;;;;;;18.83;31.10;103247.91;4968638;28;99502;-85
2024/01/09 07:38:23;;;;;;;2.10;1.10;;;;;;;18.83;31.02;103245.28;4972015;28;97605;-86
2024/01/09 07:40:49;;;;;;;1.83;1.00;;;;;;;18.83;31.21;103252.34;4989483;28;96882;-85
2024/01/09 07:43:15;;;;;;;2.13;1.55;;;;;;;18.83;31.11;103263.78;4982157;28;97612;-85
2024/01/09 07:45:41;;;;;;;2.35;1.42;;;;;;;18.83;30.87;103255.84;4990388;28;97124;-86
2024/01/09 07:48:06;;;;;;;2.13;1.30;;;;;;;18.83;31.06;103266.44;4976013;28;96793;-86
2024/01/09 07:50:32;;;;;;;1.80;1.20;;;;;;;18.82;30.93;103267.31;4991221;28;97445;-85
2024/01/09 07:52:58;;;;;;;2.20;1.40;;;;;;;18.83;31.25;103261.16;4968477;28;98103;-87
2024/01/09 07:55:24;;;;;;;3.95;1.92;;;;;;;18.82;31.08;103266.41;4981285;28;96948;-85
2024/01/09 07:57:49;;;;;;;2.20;1.15;;;;;;;18.83;31.07;103265.56;4976359;28;96975;-86
2024/01/09 08:00:15;;;;;;;2.58;2.00;;;;;;;18.83;30.90;103276.13;4979208;28;114133;-86
2024/01/09 08:02:40;;;;;;;3.08;1.70;;;;;;;18.82;31.25;103269.97;4970991;28;98684;-86
2024/01/09 08:05:06;;;;;;;2.22;1.45;;;;;;;18.81;31.16;103264.59;4979830;28;110471;-87
2024/01/09 08:07:32;;;;;;;2.25;1.13;;;;;;;18.82;30.94;103263.75;4988808;28;97170;-87
2024/01/09 08:09:57;;;;;;;2.67;1.60;;;;;;;18.82;31.09;103272.59;4975422;28;97418;-86
2024/01/09 08:12:23;;;;;;;2.58;1.25;;;;;;;18.82;31.00;103271.69;4986475;28;99025;-86
2024/01/09 08:14:49;;;;;;;2.28;0.98;;;;;;;18.82;31.21;103261.13;4985040;28;97282;-87
2024/01/09 08:17:14;;;;;;;3.17;1.88;;;;;;;18.82;30.98;103262.03;4989407;28;96800;-86
2024/01/09 08:19:40;;;;;;;2.28;1.40;;;;;;;18.81;30.92;103265.53;4966710;28;112642;-86
2024/01/09 08:22:06;;;;;;;3.38;1.67;;;;;;;18.82;30.80;103274.34;4966579;28;96927;-86
2024/01/09 08:24:32;;;;;;;2.08;1.02;;;;;;;18.82;31.07;103271.69;4985893;28;97777;-86
2024/01/09 08:26:57;;;;;;;4.57;1.67;;;;;;;18.81;30.96;103273.44;4979271;28;97318;-86
2024/01/09 08:29:27;;;;;;;2.58;1.55;;;;;;;18.82;31.03;103277.88;4983478;28;97299;-86
2024/01/09 08:31:52;;;;;;;2.33;1.30;;;;;;;18.82;31.00;103269.97;4982072;28;96984;-86
2024/01/09 08:34:18;;;;;;;2.50;1.80;;;;;;;18.82;30.92;103274.34;4992318;28;97219;-85
2024/01/09 08:36:45;;;;;;;2.95;1.50;;;;;;;18.83;30.94;103276.13;4973397;28;118384;-86
2024/01/09 08:39:11;;;;;;;2.25;1.75;;;;;;;18.82;30.88;103272.59;4996089;28;97115;-85
2024/01/09 08:41:36;;;;;;;2.13;1.88;;;;;;;18.82;30.94;103274.34;4971448;28;96858;-85
2024/01/09 08:44:02;;;;;;;2.65;1.75;;;;;;;18.82;30.83;103277.88;4965364;28;96950;-86
2024/01/09 08:46:27;;;;;;;2.80;1.90;;;;;;;18.81;30.96;103276.09;4983430;28;97304;-86
2024/01/09 08:48:53;;;;;;;2.17;1.30;;;;;;;18.82;31.00;103284.91;5000536;28;96779;-86
2024/01/09 08:51:18;;;;;;;2.20;1.15;;;;;;;18.80;31.14;103284.84;5016132;28;107073;-86
2024/01/09 08:53:44;;;;;;;2.40;1.02;;;;;;;18.82;31.05;103291.13;5005822;28;97202;-86
2024/01/09 08:56:09;;;;;;;1.83;1.02;;;;;;;18.82;30.89;103284.91;4988984;28;116368;-86
2024/01/09 08:58:35;;;;;;;2.25;1.20;;;;;;;18.81;30.81;103285.75;4991289;28;96978;-86
2024/01/09 09:01:01;;;;;;;2.33;1.23;;;;;;;18.83;30.90;103297.28;4957029;28;98103;-86
2024/01/09 09:03:26;;;;;;;1.88;1.20;;;;;;;18.82;31.00;103287.56;4991396;28;97210;-84
2024/01/09 09:05:52;;;;;;;3.03;1.60;;;;;;;18.82;30.96;103288.47;4986098;28;97177;-84
2024/01/09 09:08:18;;;;;;;2.83;1.92;;;;;;;18.81;31.09;103286.69;4995359;28;113092;-86
2024/01/09 09:10:43;;;;;;;2.17;1.02;;;;;;;18.82;30.77;103298.13;4998034;28;97855;-85
2024/01/09 09:13:09;;;;;;;2.50;1.30;;;;;;;18.82;31.15;103298.13;4983342;28;97518;-85
2024/01/09 09:15:35;;;;;;;3.22;1.42;;;;;;;18.81;30.94;103297.25;4986278;28;98476;-85
2024/01/09 09:18:01;;;;;;;2.50;1.67;;;;;;;18.81;30.89;103304.28;4972825;28;97255;-86
2024/01/09 09:20:26;;;;;;;3.70;1.75;;;;;;;18.82;30.96;103304.34;4988835;28;99668;-86
2024/01/09 09:22:52;;;;;;;2.58;1.85;;;;;;;18.82;30.74;103304.34;4987760;28;99964;-85
2024/01/09 09:25:17;;;;;;;2.22;1.23;;;;;;;18.82;30.96;103299.03;4986783;28;96921;-86
2024/01/09 09:27:45;;;;;;;2.45;1.58;;;;;;;18.81;30.73;103307.81;4982636;28;97458;-86
2024/01/09 09:30:12;;;;;;;2.70;1.17;;;;;;;18.83;30.66;103305.22;4973521;28;98089;-86
2024/01/09 09:32:38;;;;;;;3.08;1.13;;;;;;;18.83;30.87;103300.81;4972304;28;96786;-86
2024/01/09 09:35:04;;;;;;;2.20;1.20;;;;;;;18.83;30.77;103300.81;4984488;28;96663;-87
2024/01/09 09:37:29;;;;;;;2.30;1.40;;;;;;;18.84;31.03;103301.69;5001266;28;96783;-89
2024/01/09 09:39:55;;;;;;;3.22;1.98;;;;;;;18.85;30.72;103305.25;5006333;28;97135;-85
2024/01/09 09:42:20;;;;;;;2.40;1.00;;;;;;;18.85;30.72;103303.47;4994859;28;129112;-87
2024/01/09 09:44:53;;;;;;;2.85;1.23;;;;;;;18.85;30.81;103306.13;5000421;28;96762;-86
2024/01/09 09:47:21;;;;;;;2.28;1.23;;;;;;;18.83;30.99;103300.81;4976973;28;97430;-86
2024/01/09 09:49:49;;;;;;;2.20;1.13;;;;;;;18.85;30.69;103297.31;4985576;28;98455;-86
2024/01/09 09:52:15;;;;;;;3.13;1.27;;;;;;;18.85;30.81;103295.56;4983662;28;98887;-85
2024/01/09 09:54:41;;;;;;;2.35;1.33;;;;;;;18.85;31.09;103297.31;4968456;28;96837;-85
2024/01/09 09:57:08;;;;;;;2.45;1.17;;;;;;;18.86;30.75;103299.06;4972338;28;97022;-86
2024/01/09 09:59:33;;;;;;;2.05;1.10;;;;;;;18.86;30.53;103299.06;4978107;28;99690;-86
2024/01/09 10:02:04;;;;;;;2.35;1.58;;;;;;;18.85;30.94;103303.47;4990408;28;97217;-87
2024/01/09 10:04:49;;;;;;;2.60;1.27;;;;;;;18.85;30.86;103292.03;4997289;28;96825;-87
2024/01/09 10:07:20;;;;;;;2.58;1.50;;;;;;;18.85;30.66;103294.66;5012438;28;96946;-86
2024/01/09 10:09:51;;;;;;;2.92;2.30;;;;;;;18.85;30.66;103292.03;4969787;28;98749;-86
2024/01/09 10:12:19;;;;;;;3.30;1.63;;;;;;;18.85;30.88;103292.03;5012833;28;96987;-86
2024/01/09 10:15:12;;;;;;;2.83;1.20;;;;;;;18.84;30.54;103291.09;4996806;28;97188;-87
2024/01/09 10:17:39;;;;;;;2.42;1.25;;;;;;;18.82;30.86;103285.81;4980121;28;96960;-86
2024/01/09 10:20:08;;;;;;;3.22;1.70;;;;;;;18.82;30.53;103283.19;4989744;28;99970;-86
2024/01/09 10:22:35;;;;;;;3.08;1.85;;;;;;;18.82;30.98;103280.53;5003054;28;100079;-86
2024/01/09 10:25:12;;;;;;;2.47;1.13;;;;;;;18.83;30.75;103279.66;4959650;28;96762;-86
2024/01/09 10:27:39;;;;;;;2.63;1.60;;;;;;;18.83;30.90;103279.66;4982191;28;96998;-85
2024/01/09 10:30:07;;;;;;;2.42;1.15;;;;;;;18.83;30.70;103282.28;4991909;28;98054;-86
2024/01/09 10:32:34;;;;;;;2.63;1.48;;;;;;;18.83;30.75;103265.56;5004700;28;97864;-86
2024/01/09 10:35:00;;;;;;;3.10;1.92;;;;;;;18.84;30.44;103272.59;4995770;28;96866;-86
2024/01/09 10:37:25;;;;;;;3.20;1.65;;;;;;;18.84;30.63;103269.97;4972602;28;96867;-86
2024/01/09 10:39:51;;;;;;;2.92;1.92;;;;;;;18.85;30.66;103266.47;4993009;28;96755;-86
2024/01/09 10:42:17;;;;;;;3.35;1.52;;;;;;;18.85;30.55;103263.81;4980258;28;98908;-84
2024/01/09 10:44:46;;;;;;;4.88;2.08;;;;;;;18.86;30.85;103257.69;4989547;28;96909;-86
2024/01/09 10:47:14;;;;;;;2.70;1.27;;;;;;;18.87;30.68;103255.91;5002307;28;96988;-87
2024/01/09 10:49:42;;;;;;;5.45;1.50;;;;;;;18.89;30.75;103259.47;5003016;28;98770;-87
2024/01/09 10:52:16;;;;;;;2.92;1.40;;;;;;;18.90;30.83;103267.44;4990471;28;96755;-86
2024/01/09 10:54:42;;;;;;;3.10;1.52;;;;;;;18.91;30.90;103255.09;4993885;28;96690;-85
2024/01/09 10:57:12;;;;;;;3.13;1.38;;;;;;;18.93;31.07;103248.97;4989257;28;97245;-85
2024/01/09 10:59:40;;;;;;;3.28;2.00;;;;;;;18.95;30.68;103251.66;4968510;28;99355;-85
2024/01/09 11:02:10;;;;;;;2.78;1.50;;;;;;;18.94;31.16;103234.00;5023338;27;98554;-85
2024/01/09 11:04:35;;;;;;;2.78;1.42;;;;;;;18.95;30.91;103231.38;4987131;28;96896;-84
2024/01/09 11:07:02;;;;;;;2.95;1.58;;;;;;;18.96;30.97;103230.50;5002228;28;96828;-85
2024/01/09 11:09:29;;;;;;;2.88;1.40;;;;;;;18.97;30.84;103231.41;4989195;28;98076;-84
2024/01/09 11:11:55;;;;;;;3.58;2.08;;;;;;;18.96;30.97;103233.13;4979492;28;97507;-85
2024/01/09 11:14:26;;;;;;;3.60;1.30;;;;;;;18.95;30.72;103218.16;5008613;28;97413;-85
2024/01/09 11:16:53;;;;;;;3.35;1.42;;;;;;;18.96;30.78;103224.31;5004512;28;96976;-85
2024/01/09 11:19:19;;;;;;;2.55;1.40;;;;;;;18.96;30.74;103221.69;4982227;28;96907;-85